createdAt,value
2019-04-29T00:01:08.420Z,100863.41
2019-04-29T00:03:47.509Z,100867.98
2019-04-29T00:06:25.684Z,100864.25
2019-04-29T00:09:06.876Z,100866.54
2019-04-29T00:11:46.528Z,100863.08
2019-04-29T00:14:27.739Z,100861.95
2019-04-29T00:17:16.634Z,100856.22
2019-04-29T00:20:22.549Z,100861.80
2019-04-29T00:23:00.423Z,100862.33
2019-04-29T00:25:39.368Z,100871.61
2019-04-29T00:28:18.553Z,100868.38
2019-04-29T00:30:56.597Z,100880.38
2019-04-29T00:33:34.651Z,100883.36
2019-04-29T00:36:13.700Z,100881.55
2019-04-29T00:39:08.298Z,100877.70
2019-04-29T00:42:09.835Z,100895.51
2019-04-29T00:44:47.219Z,100893.20
2019-04-29T00:47:25.227Z,100900.29
2019-04-29T00:50:02.792Z,100907.16
2019-04-29T00:52:41.037Z,100915.36
2019-04-29T00:55:21.657Z,100925.88
2019-04-29T00:58:00.429Z,100921.63
2019-04-29T01:00:40.523Z,100917.59
2019-04-29T01:03:19.781Z,100927.53
2019-04-29T01:05:56.965Z,100932.47
2019-04-29T01:08:37.850Z,100938.12
2019-04-29T01:11:14.992Z,100936.39
2019-04-29T01:13:53.584Z,100936.13
2019-04-29T01:16:30.177Z,100946.10
2019-04-29T01:19:08.375Z,100943.06
2019-04-29T01:21:45.803Z,100950.78
2019-04-29T01:24:23.186Z,100950.13
2019-04-29T01:27:21.688Z,100952.89
2019-04-29T01:29:59.979Z,100952.27
2019-04-29T01:32:37.927Z,100956.27
2019-04-29T01:35:15.554Z,100957.09
2019-04-29T01:37:53.806Z,100963.58
2019-04-29T01:41:01.076Z,100963.03
2019-04-29T01:43:55.239Z,100971.46
2019-04-29T01:46:35.036Z,100967.07
2019-04-29T01:49:12.138Z,100966.95
2019-04-29T01:51:50.706Z,100971.56
2019-04-29T01:54:29.656Z,100968.92
2019-04-29T01:57:07.439Z,100971.83
2019-04-29T01:59:47.510Z,100979.27
2019-04-29T02:02:25.208Z,100974.27
2019-04-29T02:05:02.630Z,100976.41
2019-04-29T02:07:40.350Z,100976.53
2019-04-29T02:10:24.155Z,100974.36
2019-04-29T02:13:02.782Z,100979.50
2019-04-29T02:15:40.098Z,100979.50
2019-04-29T02:18:19.101Z,100984.12
2019-04-29T02:20:56.551Z,100976.55
2019-04-29T02:23:50.264Z,100980.63
2019-04-29T02:26:27.710Z,100975.80
2019-04-29T02:29:06.521Z,100981.97
2019-04-29T02:31:44.896Z,100979.52
2019-04-29T02:34:22.447Z,100985.39
2019-04-29T02:37:01.003Z,100980.89
2019-04-29T02:39:45.266Z,100982.17
2019-04-29T02:42:43.945Z,100990.56
2019-04-29T02:45:30.129Z,100988.58
2019-04-29T02:48:07.355Z,100990.39
2019-04-29T02:50:46.284Z,100987.48
2019-04-29T02:53:23.552Z,100982.07
2019-04-29T02:56:02.130Z,100992.17
2019-04-29T02:58:57.541Z,100990.06
2019-04-29T03:01:50.898Z,100985.64
2019-04-29T03:04:30.291Z,100992.39
2019-04-29T03:07:08.877Z,100990.64
2019-04-29T03:09:49.804Z,100956.70
2019-04-29T03:12:27.612Z,100956.70
2019-04-29T03:15:04.946Z,100953.48
2019-04-29T03:17:43.792Z,100950.30
2019-04-29T03:20:26.955Z,100973.58
2019-04-29T03:23:10.974Z,100978.03
2019-04-29T03:25:46.283Z,100978.03
2019-04-29T03:28:24.400Z,100975.34
2019-04-29T03:31:02.131Z,100975.34
2019-04-29T03:33:39.374Z,100973.30
2019-04-29T03:36:16.922Z,100975.06
2019-04-29T03:38:55.105Z,100974.48
2019-04-29T03:41:33.244Z,100977.28
2019-04-29T03:44:10.940Z,100966.53
2019-04-29T03:46:48.508Z,100966.36
2019-04-29T03:49:26.853Z,100959.61
2019-04-29T03:52:04.507Z,100962.98
2019-04-29T03:54:43.116Z,100952.05
2019-04-29T03:57:21.038Z,100945.75
2019-04-29T03:59:58.790Z,100946.83
2019-04-29T04:02:46.707Z,100946.83
2019-04-29T04:05:54.352Z,100936.88
2019-04-29T04:08:36.466Z,100940.92
2019-04-29T04:11:15.065Z,100930.66
2019-04-29T04:13:52.615Z,100930.66
2019-04-29T04:16:48.386Z,100920.44
2019-04-29T04:19:27.475Z,100920.44
2019-04-29T04:22:04.961Z,100905.30
2019-04-29T04:24:41.883Z,100913.50
2019-04-29T04:27:20.365Z,100887.60
2019-04-29T04:29:58.771Z,100887.60
2019-04-29T04:32:38.231Z,100897.71
2019-04-29T04:35:15.662Z,100897.71
2019-04-29T04:37:53.463Z,100896.91
2019-04-29T04:40:35.503Z,100891.91
2019-04-29T04:43:14.531Z,100887.10
2019-04-29T04:45:51.835Z,100889.32
2019-04-29T04:48:29.071Z,100880.77
2019-04-29T04:51:05.901Z,100879.55
2019-04-29T04:53:43.416Z,100877.20
2019-04-29T04:56:20.874Z,100880.34
2019-04-29T04:58:59.820Z,100876.02
2019-04-29T05:01:37.207Z,100868.50
2019-04-29T05:04:15.670Z,100867.24
2019-04-29T05:06:53.320Z,100865.07
2019-04-29T05:09:30.925Z,100869.22
2019-04-29T05:12:08.244Z,100866.83
2019-04-29T05:14:46.448Z,100858.98
2019-04-29T05:17:24.874Z,100860.64
2019-04-29T05:20:02.558Z,100861.19
2019-04-29T05:22:42.868Z,100851.56
2019-04-29T05:25:21.101Z,100859.05
2019-04-29T05:27:58.009Z,100845.27
2019-04-29T05:30:36.792Z,100843.47
2019-04-29T05:33:14.166Z,100841.52
2019-04-29T05:36:06.971Z,100831.39
2019-04-29T05:39:05.586Z,100829.27
2019-04-29T05:41:42.995Z,100825.62
2019-04-29T05:44:45.432Z,100817.73
2019-04-29T05:47:52.308Z,100801.88
2019-04-29T05:51:02.005Z,100802.23
2019-04-29T05:53:47.808Z,100804.22
2019-04-29T05:56:24.626Z,100800.41
2019-04-29T05:59:03.409Z,100805.50
2019-04-29T06:01:42.774Z,100781.71
2019-04-29T06:04:21.696Z,100790.20
2019-04-29T06:06:58.954Z,100780.67
2019-04-29T06:09:37.619Z,100776.36
2019-04-29T06:12:15.098Z,100758.57
2019-04-29T06:14:56.191Z,100750.86
2019-04-29T06:17:33.615Z,100742.59
2019-04-29T06:20:17.448Z,100744.53
2019-04-29T06:22:51.979Z,100741.18
2019-04-29T06:25:29.385Z,100732.66
2019-04-29T06:28:07.325Z,100722.94
2019-04-29T06:30:50.238Z,100722.31
2019-04-29T06:33:29.289Z,100721.56
2019-04-29T06:36:05.136Z,100714.67
2019-04-29T06:38:42.086Z,100707.98
2019-04-29T06:41:19.737Z,100700.19
2019-04-29T06:44:00.750Z,100694.80
2019-04-29T06:46:37.498Z,100697.08
2019-04-29T06:49:14.964Z,100688.45
2019-04-29T06:51:53.401Z,100681.91
2019-04-29T06:54:30.859Z,100675.36
2019-04-29T06:57:08.769Z,100672.38
2019-04-29T06:59:47.665Z,100669.59
2019-04-29T07:02:26.864Z,100660.98
2019-04-29T07:05:05.094Z,100656.42
2019-04-29T07:07:42.841Z,100652.84
2019-04-29T07:10:21.263Z,100646.44
2019-04-29T07:13:00.749Z,100635.58
2019-04-29T07:15:38.086Z,100618.83
2019-04-29T07:18:15.566Z,100621.58
2019-04-29T07:20:53.102Z,100612.12
2019-04-29T07:23:33.396Z,100616.72
2019-04-29T07:26:10.618Z,100607.24
2019-04-29T07:28:48.688Z,100603.05
2019-04-29T07:31:32.734Z,100589.55
2019-04-29T07:34:08.551Z,100597.36
2019-04-29T07:36:46.813Z,100583.53
2019-04-29T07:39:26.688Z,100581.83
2019-04-29T07:42:03.473Z,100580.48
2019-04-29T07:44:52.734Z,100569.81
2019-04-29T07:47:31.020Z,100567.06
2019-04-29T07:50:09.130Z,100559.12
2019-04-29T07:52:49.996Z,100551.47
2019-04-29T07:55:30.935Z,100546.67
2019-04-29T07:58:07.144Z,100542.59
2019-04-29T08:00:48.811Z,100538.37
2019-04-29T08:03:24.557Z,100539.52
2019-04-29T08:06:03.223Z,100541.72
2019-04-29T08:08:54.385Z,100533.92
2019-04-29T08:11:21.675Z,100532.83
2019-04-29T08:14:00.399Z,100533.73
2019-04-29T08:16:38.743Z,100536.78
2019-04-29T08:19:16.098Z,100541.70
2019-04-29T08:21:53.450Z,100539.00
2019-04-29T08:24:30.644Z,100544.79
2019-04-29T08:27:08.614Z,100538.27
2019-04-29T08:29:46.346Z,100537.66
2019-04-29T08:32:24.506Z,100534.23
2019-04-29T08:35:03.360Z,100530.02
2019-04-29T08:37:41.814Z,100524.59
2019-04-29T08:40:20.566Z,100524.34
2019-04-29T08:43:20.471Z,100527.31
2019-04-29T08:46:03.439Z,100523.64
2019-04-29T08:48:42.204Z,100508.20
2019-04-29T08:51:19.934Z,100505.03
2019-04-29T08:53:57.801Z,100507.03
2019-04-29T08:56:35.363Z,100501.92
2019-04-29T08:59:14.389Z,100498.72
2019-04-29T09:01:51.889Z,100498.74
2019-04-29T09:04:33.346Z,100489.03
2019-04-29T09:07:12.627Z,100489.04
2019-04-29T09:09:48.486Z,100487.52
2019-04-29T09:12:29.354Z,100488.72
2019-04-29T09:15:06.133Z,100497.08
2019-04-29T09:17:43.517Z,100496.57
2019-04-29T09:20:22.321Z,100491.99
2019-04-29T09:23:03.815Z,100489.00
2019-04-29T09:26:14.526Z,100490.64
2019-04-29T09:28:51.243Z,100485.00
2019-04-29T09:31:29.479Z,100480.23
2019-04-29T09:34:07.118Z,100484.20
2019-04-29T09:36:48.400Z,100482.42
2019-04-29T09:39:24.395Z,100480.95
2019-04-29T09:42:31.033Z,100479.32
2019-04-29T09:45:35.702Z,100484.14
2019-04-29T09:48:13.069Z,100488.91
2019-04-29T09:50:51.306Z,100487.38
2019-04-29T09:53:28.947Z,100489.78
2019-04-29T09:56:06.348Z,100486.05
2019-04-29T09:58:44.276Z,100490.26
2019-04-29T10:01:41.927Z,100486.83
2019-04-29T10:04:36.112Z,100488.75
2019-04-29T10:07:13.774Z,100490.25
2019-04-29T10:09:57.341Z,100497.66
2019-04-29T10:12:30.392Z,100505.88
2019-04-29T10:15:10.290Z,100517.06
2019-04-29T10:18:03.908Z,100513.72
2019-04-29T10:20:50.008Z,100509.45
2019-04-29T10:23:27.900Z,100500.50
2019-04-29T10:26:05.880Z,100504.02
2019-04-29T10:28:58.452Z,100514.70
2019-04-29T10:31:36.381Z,100513.27
2019-04-29T10:34:13.981Z,100516.77
2019-04-29T10:36:52.616Z,100519.38
2019-04-29T10:40:10.855Z,100529.80
2019-04-29T10:42:51.969Z,100532.17
2019-04-29T10:45:44.052Z,100529.53
2019-04-29T10:48:27.190Z,100531.46
2019-04-29T10:51:06.247Z,100524.34
2019-04-29T10:53:46.631Z,100523.67
2019-04-29T10:56:24.032Z,100524.07
2019-04-29T10:59:04.516Z,100534.75
2019-04-29T11:02:32.832Z,100545.16
2019-04-29T11:05:36.580Z,100553.06
2019-04-29T11:08:43.111Z,100561.36
2019-04-29T11:11:26.922Z,100562.63
2019-04-29T11:14:03.184Z,100569.23
2019-04-29T11:16:46.461Z,100571.75
2019-04-29T11:19:20.534Z,100579.96
2019-04-29T11:22:02.242Z,100583.88
2019-04-29T11:24:53.613Z,100582.30
2019-04-29T11:27:35.067Z,100590.73
2019-04-29T11:30:16.893Z,100589.64
2019-04-29T11:33:11.770Z,100599.77
2019-04-29T11:35:59.135Z,100602.68
2019-04-29T11:38:38.464Z,100608.30
2019-04-29T11:41:19.754Z,100605.12
2019-04-29T11:43:55.812Z,100611.24
2019-04-29T11:46:33.053Z,100623.82
2019-04-29T11:49:11.358Z,100631.56
2019-04-29T11:52:08.532Z,100635.72
2019-04-29T11:54:31.523Z,100641.16
2019-04-29T11:57:10.589Z,100648.23
2019-04-29T11:59:58.075Z,100648.17
2019-04-29T12:02:57.025Z,100645.44
2019-04-29T12:05:44.790Z,100653.38
2019-04-29T12:08:20.416Z,100660.86
2019-04-29T12:11:07.263Z,100654.88
2019-04-29T12:13:43.941Z,100647.85
2019-04-29T12:16:32.560Z,100651.11
2019-04-29T12:19:20.895Z,100656.21
2019-04-29T12:21:57.389Z,100662.20
2019-04-29T12:24:34.709Z,100682.05
2019-04-29T12:27:14.729Z,100682.63
2019-04-29T12:29:54.174Z,100689.02
2019-04-29T12:32:43.597Z,100704.56
2019-04-29T12:35:52.085Z,100705.62
2019-04-29T12:38:48.754Z,100702.27
2019-04-29T12:41:49.094Z,100710.61
2019-04-29T12:44:35.058Z,100725.37
2019-04-29T12:47:28.021Z,100731.75
2019-04-29T12:50:08.001Z,100743.34
2019-04-29T12:52:49.285Z,100744.66
2019-04-29T12:55:53.640Z,100753.03
2019-04-29T12:58:31.544Z,100755.91
2019-04-29T13:01:23.713Z,100756.84
2019-04-29T13:04:04.584Z,100765.45
2019-04-29T13:07:18.891Z,100766.84
2019-04-29T13:10:02.173Z,100764.11
2019-04-29T13:12:39.905Z,100774.27
2019-04-29T13:15:33.479Z,100782.45
2019-04-29T13:18:23.088Z,100781.45
2019-04-29T13:21:09.129Z,100781.22
2019-04-29T13:23:55.013Z,100786.78
2019-04-29T13:26:27.355Z,100795.55
2019-04-29T13:29:01.828Z,100799.87
2019-04-29T13:31:38.504Z,100806.98
2019-04-29T13:34:24.075Z,100810.44
2019-04-29T13:37:06.574Z,100828.10
2019-04-29T13:39:39.947Z,100832.72
2019-04-29T13:42:15.314Z,100837.38
2019-04-29T13:45:05.068Z,100848.16
2019-04-29T13:47:50.560Z,100845.16
2019-04-29T13:50:40.499Z,100851.16
2019-04-29T13:53:16.705Z,100845.11
2019-04-29T13:56:10.478Z,100844.68
2019-04-29T13:58:34.608Z,100853.61
2019-04-29T14:01:23.656Z,100862.15
2019-04-29T14:04:07.222Z,100863.45
2019-04-29T14:06:56.487Z,100861.27
2019-04-29T14:09:27.895Z,100876.23
2019-04-29T14:12:46.446Z,100883.69
2019-04-29T14:14:44.516Z,100876.98
2019-04-29T14:17:26.463Z,100879.07
2019-04-29T14:20:01.513Z,100880.97
2019-04-29T14:22:40.089Z,100870.24
2019-04-29T14:25:17.835Z,100883.82
2019-04-29T14:27:56.700Z,100883.01
2019-04-29T14:30:38.808Z,100887.98
2019-04-29T14:33:12.595Z,100885.08
2019-04-29T14:36:04.970Z,100891.61
2019-04-29T14:38:42.557Z,100879.34
2019-04-29T14:41:20.946Z,100876.92
2019-04-29T14:44:11.567Z,100874.77
2019-04-29T14:46:58.222Z,100879.93
2019-04-29T14:49:41.271Z,100890.95
2019-04-29T14:52:18.547Z,100895.34
2019-04-29T14:54:56.884Z,100893.12
2019-04-29T14:57:34.322Z,100897.35
2019-04-29T15:00:24.594Z,100898.62
2019-04-29T15:03:02.892Z,100901.95
2019-04-29T15:05:40.465Z,100905.27
2019-04-29T15:08:17.794Z,100888.70
2019-04-29T15:10:55.524Z,100892.09
2019-04-29T15:13:33.658Z,100894.11
2019-04-29T15:16:19.329Z,100892.51
2019-04-29T15:19:26.701Z,100900.63
2019-04-29T15:22:08.610Z,100910.66
2019-04-29T15:24:46.131Z,100923.79
2019-04-29T15:27:22.793Z,100924.95
2019-04-29T15:30:00.068Z,100918.96
2019-04-29T15:32:40.273Z,100915.58
2019-04-29T15:35:19.856Z,100908.44
2019-04-29T15:37:56.833Z,100901.00
2019-04-29T15:40:33.776Z,100901.95
2019-04-29T15:43:12.927Z,100892.16
2019-04-29T15:45:50.251Z,100895.47
2019-04-29T15:48:28.090Z,100898.36
2019-04-29T15:51:09.228Z,100889.43
2019-04-29T15:53:44.792Z,100881.73
2019-04-29T15:56:28.913Z,100881.16
2019-04-29T15:59:08.021Z,100868.42
2019-04-29T16:01:42.021Z,100866.49
2019-04-29T16:04:27.843Z,100868.27
2019-04-29T16:07:24.344Z,100868.08
2019-04-29T16:10:20.464Z,100871.80
2019-04-29T16:13:01.144Z,100865.06
2019-04-29T16:15:38.900Z,100865.19
2019-04-29T16:18:16.562Z,100859.14
2019-04-29T16:20:54.291Z,100859.45
2019-04-29T16:23:32.747Z,100853.23
2019-04-29T16:26:11.461Z,100851.81
2019-04-29T16:28:48.528Z,100842.68
2019-04-29T16:31:25.861Z,100837.88
2019-04-29T16:34:03.827Z,100828.97
2019-04-29T16:36:49.132Z,100822.21
2019-04-29T16:39:22.843Z,100828.67
2019-04-29T16:42:27.709Z,100821.89
2019-04-29T16:45:06.129Z,100820.55
2019-04-29T16:47:47.390Z,100812.51
2019-04-29T16:50:24.177Z,100814.53
2019-04-29T16:53:01.473Z,100805.05
2019-04-29T16:55:43.011Z,100807.36
2019-04-29T16:58:18.863Z,100798.88
2019-04-29T17:00:56.342Z,100794.70
2019-04-29T17:03:33.778Z,100790.22
2019-04-29T17:06:11.571Z,100785.45
2019-04-29T17:09:24.172Z,100788.23
2019-04-29T17:12:02.675Z,100785.23
2019-04-29T17:15:02.293Z,100785.86
2019-04-29T17:17:28.842Z,100776.46
2019-04-29T17:20:02.726Z,100777.20
2019-04-29T17:22:43.095Z,100768.97
2019-04-29T17:25:20.451Z,100767.08
2019-04-29T17:28:11.433Z,100769.39
2019-04-29T17:34:01.248Z,100771.05
2019-04-29T17:35:16.339Z,100769.84
2019-04-29T17:36:39.463Z,100765.23
2019-04-29T17:39:18.671Z,100759.31
2019-04-29T17:41:57.003Z,100755.13
2019-04-29T17:44:47.911Z,100747.19
2019-04-29T17:47:54.120Z,100753.30
2019-04-29T17:50:46.258Z,100738.98
2019-04-29T17:53:35.482Z,100733.93
2019-04-29T17:56:35.104Z,100729.39
2019-04-29T17:59:31.701Z,100725.31
2019-04-29T18:02:25.564Z,100724.84
2019-04-29T18:05:26.906Z,100721.37
2019-04-29T18:08:12.337Z,100716.52
2019-04-29T18:10:55.595Z,100718.13
2019-04-29T18:13:32.493Z,100717.09
2019-04-29T18:16:17.924Z,100709.34
2019-04-29T18:19:01.954Z,100708.16
2019-04-29T18:21:57.202Z,100702.68
2019-04-29T18:24:55.388Z,100700.42
2019-04-29T18:27:36.736Z,100696.14
2019-04-29T18:30:16.287Z,100697.17
2019-04-29T18:32:52.839Z,100697.62
2019-04-29T18:35:30.080Z,100691.05
2019-04-29T18:38:12.024Z,100684.13
2019-04-29T18:40:49.428Z,100685.22
2019-04-29T18:43:28.552Z,100682.26
2019-04-29T18:46:12.397Z,100682.00
2019-04-29T18:48:46.536Z,100677.75
2019-04-29T18:51:27.374Z,100677.55
2019-04-29T18:54:03.272Z,100682.37
2019-04-29T18:56:40.719Z,100675.88
2019-04-29T18:59:21.442Z,100668.74
2019-04-29T19:02:01.049Z,100671.97
2019-04-29T19:04:58.473Z,100667.13
2019-04-29T19:07:39.616Z,100666.61
2019-04-29T19:10:18.599Z,100656.86
2019-04-29T19:13:00.138Z,100655.41
2019-04-29T19:15:39.927Z,100651.82
2019-04-29T19:18:17.400Z,100655.70
2019-04-29T19:20:56.971Z,100653.50
2019-04-29T19:23:35.886Z,100654.88
2019-04-29T19:26:18.169Z,100649.59
2019-04-29T19:28:56.823Z,100650.70
2019-04-29T19:31:36.968Z,100640.29
2019-04-29T19:34:18.554Z,100641.09
2019-04-29T19:36:55.683Z,100651.66
2019-04-29T19:39:31.532Z,100655.62
2019-04-29T19:42:09.882Z,100650.24
2019-04-29T19:44:47.074Z,100649.94
2019-04-29T19:47:28.129Z,100651.82
2019-04-29T19:50:05.804Z,100653.91
2019-04-29T19:52:45.444Z,100647.88
2019-04-29T19:55:25.222Z,100640.66
2019-04-29T19:58:04.423Z,100645.38
2019-04-29T20:00:43.477Z,100643.30
2019-04-29T20:03:25.172Z,100656.69
2019-04-29T20:06:08.766Z,100657.01
2019-04-29T20:08:54.236Z,100652.98
2019-04-29T20:11:28.973Z,100652.92
2019-04-29T20:14:08.367Z,100651.81
2019-04-29T20:17:04.426Z,100648.86
2019-04-29T20:20:05.513Z,100645.34
2019-04-29T20:22:48.826Z,100646.22
2019-04-29T20:25:30.297Z,100658.37
2019-04-29T20:28:06.659Z,100654.77
2019-04-29T20:30:43.078Z,100661.92
2019-04-29T20:33:20.929Z,100670.58
2019-04-29T20:36:02.348Z,100673.00
2019-04-29T20:38:39.197Z,100677.15
2019-04-29T20:41:21.009Z,100677.05
2019-04-29T20:43:56.204Z,100685.81
2019-04-29T20:46:44.895Z,100682.48
2019-04-29T20:49:12.991Z,100685.50
2019-04-29T20:51:55.759Z,100684.75
2019-04-29T20:54:35.474Z,100661.80
2019-04-29T20:57:20.401Z,100661.80
2019-04-29T20:59:51.700Z,100683.38
2019-04-29T21:02:34.731Z,100695.15
2019-04-29T21:05:10.007Z,100689.56
2019-04-29T21:07:49.214Z,100691.37
2019-04-29T21:10:28.280Z,100700.38
2019-04-29T21:13:20.349Z,100703.35
2019-04-29T21:16:08.271Z,100700.21
2019-04-29T21:18:52.952Z,100700.88
2019-04-29T21:21:25.932Z,100703.82
2019-04-29T21:24:06.461Z,100706.75
2019-04-29T21:26:45.950Z,100706.27
2019-04-29T21:29:25.565Z,100705.05
2019-04-29T21:32:02.944Z,100707.38
2019-04-29T21:34:49.629Z,100710.55
2019-04-29T21:37:35.798Z,100716.45
2019-04-29T21:40:38.271Z,100721.08
2019-04-29T21:43:20.316Z,100725.54
2019-04-29T21:45:55.786Z,100728.27
2019-04-29T21:48:35.131Z,100730.13
2019-04-29T21:51:13.410Z,100726.08
2019-04-29T21:53:50.833Z,100728.09
2019-04-29T21:56:29.016Z,100725.37
2019-04-29T21:59:09.268Z,100726.92
2019-04-29T22:01:46.380Z,100731.32
2019-04-29T22:04:24.715Z,100733.31
2019-04-29T22:07:04.883Z,100726.11
2019-04-29T22:09:47.257Z,100730.08
2019-04-29T22:12:21.475Z,100736.47
2019-04-29T22:14:59.501Z,100735.37
2019-04-29T22:17:37.687Z,100737.64
2019-04-29T22:20:15.984Z,100736.59
2019-04-29T22:22:55.863Z,100734.65
2019-04-29T22:25:33.409Z,100733.70
2019-04-29T22:28:15.990Z,100740.33
2019-04-29T22:30:54.843Z,100735.77
2019-04-29T22:33:36.981Z,100742.34
2019-04-29T22:36:10.247Z,100750.56
2019-04-29T22:38:51.979Z,100752.33
2019-04-29T22:41:48.672Z,100750.25
2019-04-29T22:44:27.097Z,100751.82
2019-04-29T22:47:05.678Z,100755.44
2019-04-29T22:49:43.489Z,100760.42
2019-04-29T22:52:20.743Z,100759.33
2019-04-29T22:55:01.675Z,100769.59
2019-04-29T22:57:37.877Z,100767.88
2019-04-29T23:00:19.153Z,100778.89
2019-04-29T23:02:57.731Z,100777.78
2019-04-29T23:05:37.810Z,100788.44
2019-04-29T23:08:15.608Z,100785.02
2019-04-29T23:10:52.961Z,100787.48
2019-04-29T23:13:31.128Z,100792.83
2019-04-29T23:16:09.265Z,100791.88
2019-04-29T23:18:47.926Z,100798.14
2019-04-29T23:21:49.693Z,100804.52
2019-04-29T23:24:55.701Z,100807.03
2019-04-29T23:27:36.060Z,100804.15
2019-04-29T23:30:18.109Z,100807.78
2019-04-29T23:32:56.093Z,100817.02
2019-04-29T23:35:34.946Z,100816.41
2019-04-29T23:38:12.988Z,100820.77
2019-04-29T23:40:54.435Z,100821.56
2019-04-29T23:43:29.666Z,100824.14
2019-04-29T23:46:07.040Z,100825.16
2019-04-29T23:48:46.490Z,100826.34
2019-04-29T23:51:27.371Z,100831.89
2019-04-29T23:54:07.976Z,100828.16
2019-04-29T23:57:03.467Z,100826.48
2019-04-29T23:59:48.831Z,100832.29
